sensor_id;sensor_type;location;lat;lon;timestamp;pressure;altitude;pressure_sealevel;temperature;humidity
86048;BME280;76643;42.822;23.352;2024-03-08T00:02:23;95596.59;;;3.16;84.97
86048;BME280;76643;42.822;23.352;2024-03-08T00:04:49;95601.91;;;3.14;85.52
86048;BME280;76643;42.822;23.352;2024-03-08T00:07:15;95601.31;;;3.19;85.59
86048;BME280;76643;42.822;23.352;2024-03-08T00:09:40;95602.91;;;3.20;84.64
86048;BME280;76643;42.822;23.352;2024-03-08T00:12:06;95600.94;;;3.22;84.50
86048;BME280;76643;42.822;23.352;2024-03-08T00:14:32;95597.00;;;3.19;84.68
86048;BME280;76643;42.822;23.352;2024-03-08T00:16:58;95604.28;;;3.16;86.21
86048;BME280;76643;42.822;23.352;2024-03-08T00:19:23;95602.13;;;3.19;85.50
86048;BME280;76643;42.822;23.352;2024-03-08T00:21:49;95604.88;;;3.18;84.91
86048;BME280;76643;42.822;23.352;2024-03-08T00:24:14;95600.56;;;3.18;85.36
86048;BME280;76643;42.822;23.352;2024-03-08T00:26:40;95598.75;;;3.19;85.50
86048;BME280;76643;42.822;23.352;2024-03-08T00:29:07;95590.31;;;3.18;84.19
86048;BME280;76643;42.822;23.352;2024-03-08T00:31:33;95602.69;;;3.15;85.17
86048;BME280;76643;42.822;23.352;2024-03-08T00:33:58;95596.59;;;3.16;85.96
86048;BME280;76643;42.822;23.352;2024-03-08T00:36:23;95588.13;;;3.15;84.28
86048;BME280;76643;42.822;23.352;2024-03-08T00:38:50;95591.28;;;3.17;85.41
86048;BME280;76643;42.822;23.352;2024-03-08T00:41:15;95586.34;;;3.09;85.72
86048;BME280;76643;42.822;23.352;2024-03-08T00:43:41;95588.13;;;3.09;86.71
86048;BME280;76643;42.822;23.352;2024-03-08T00:46:06;95585.34;;;3.04;85.97
86048;BME280;76643;42.822;23.352;2024-03-08T00:48:33;95576.13;;;3.03;85.88
86048;BME280;76643;42.822;23.352;2024-03-08T00:50:58;95578.09;;;3.01;86.50
86048;BME280;76643;42.822;23.352;2024-03-08T00:53:23;95575.13;;;2.97;85.79
86048;BME280;76643;42.822;23.352;2024-03-08T00:55:49;95572.97;;;3.01;87.06
86048;BME280;76643;42.822;23.352;2024-03-08T00:58:15;95572.56;;;2.97;86.25
86048;BME280;76643;42.822;23.352;2024-03-08T01:00:40;95575.09;;;2.90;87.56
86048;BME280;76643;42.822;23.352;2024-03-08T01:03:06;95564.50;;;2.93;87.53
86048;BME280;76643;42.822;23.352;2024-03-08T01:05:32;95573.94;;;2.93;88.21
86048;BME280;76643;42.822;23.352;2024-03-08T01:07:58;95566.06;;;2.94;88.08
86048;BME280;76643;42.822;23.352;2024-03-08T01:10:23;95564.88;;;2.90;86.31
86048;BME280;76643;42.822;23.352;2024-03-08T01:12:49;95563.91;;;2.91;86.25
86048;BME280;76643;42.822;23.352;2024-03-08T01:15:15;95551.91;;;2.99;87.53
86048;BME280;76643;42.822;23.352;2024-03-08T01:17:40;95545.81;;;3.00;85.38
86048;BME280;76643;42.822;23.352;2024-03-08T01:20:07;95545.22;;;2.98;86.55
86048;BME280;76643;42.822;23.352;2024-03-08T01:22:32;95546.97;;;2.90;86.75
86048;BME280;76643;42.822;23.352;2024-03-08T01:24:58;95536.53;;;2.92;86.45
86048;BME280;76643;42.822;23.352;2024-03-08T01:27:24;95537.16;;;2.87;85.95
86048;BME280;76643;42.822;23.352;2024-03-08T01:29:50;95535.16;;;2.83;85.81
86048;BME280;76643;42.822;23.352;2024-03-08T01:32:16;95531.03;;;2.82;86.34
86048;BME280;76643;42.822;23.352;2024-03-08T01:34:41;95526.88;;;2.74;87.20
86048;BME280;76643;42.822;23.352;2024-03-08T01:37:07;95523.16;;;2.77;85.49
86048;BME280;76643;42.822;23.352;2024-03-08T01:39:33;95533.16;;;2.72;85.60
86048;BME280;76643;42.822;23.352;2024-03-08T01:41:58;95519.22;;;2.74;84.78
86048;BME280;76643;42.822;23.352;2024-03-08T01:44:24;95527.66;;;2.68;85.87
86048;BME280;76643;42.822;23.352;2024-03-08T01:46:50;95523.53;;;2.74;84.22
86048;BME280;76643;42.822;23.352;2024-03-08T01:49:18;95519.22;;;2.74;85.59
86048;BME280;76643;42.822;23.352;2024-03-08T01:51:48;95524.13;;;2.69;84.21
86048;BME280;76643;42.822;23.352;2024-03-08T01:54:16;95522.75;;;2.67;85.06
86048;BME280;76643;42.822;23.352;2024-03-08T01:56:43;95520.19;;;2.67;85.07
86048;BME280;76643;42.822;23.352;2024-03-08T01:59:09;95522.16;;;2.65;85.52
86048;BME280;76643;42.822;23.352;2024-03-08T02:01:35;95520.59;;;2.70;85.51
86048;BME280;76643;42.822;23.352;2024-03-08T02:04:01;95510.78;;;2.80;83.28
86048;BME280;76643;42.822;23.352;2024-03-08T02:06:26;95514.50;;;2.84;84.78
86048;BME280;76643;42.822;23.352;2024-03-08T02:08:52;95519.22;;;2.81;83.15
86048;BME280;76643;42.822;23.352;2024-03-08T02:11:18;95513.31;;;2.74;83.27
86048;BME280;76643;42.822;23.352;2024-03-08T02:13:46;95518.22;;;2.75;81.32
86048;BME280;76643;42.822;23.352;2024-03-08T02:16:11;95518.16;;;2.49;81.82
86048;BME280;76643;42.822;23.352;2024-03-08T02:18:37;95528.25;;;2.70;82.27
86048;BME280;76643;42.822;23.352;2024-03-08T02:21:05;95528.81;;;2.59;81.18
86048;BME280;76643;42.822;23.352;2024-03-08T02:23:33;95525.28;;;2.60;80.04
86048;BME280;76643;42.822;23.352;2024-03-08T02:25:58;95534.16;;;2.71;80.81
86048;BME280;76643;42.822;23.352;2024-03-08T02:28:24;95532.38;;;2.65;80.29
86048;BME280;76643;42.822;23.352;2024-03-08T02:30:54;95538.47;;;2.70;82.14
86048;BME280;76643;42.822;23.352;2024-03-08T02:33:23;95541.25;;;2.69;80.48
86048;BME280;76643;42.822;23.352;2024-03-08T02:35:49;95538.19;;;2.39;81.59
86048;BME280;76643;42.822;23.352;2024-03-08T02:38:17;95536.81;;;2.37;80.84
86048;BME280;76643;42.822;23.352;2024-03-08T02:40:44;95543.13;;;2.47;80.65
86048;BME280;76643;42.822;23.352;2024-03-08T02:43:11;95545.13;;;2.58;81.61
86048;BME280;76643;42.822;23.352;2024-03-08T02:45:37;95549.06;;;2.54;80.84
86048;BME280;76643;42.822;23.352;2024-03-08T02:48:04;95553.75;;;2.44;80.79
86048;BME280;76643;42.822;23.352;2024-03-08T02:50:29;95549.44;;;2.45;80.23
86048;BME280;76643;42.822;23.352;2024-03-08T02:52:55;95560.66;;;2.50;80.11
86048;BME280;76643;42.822;23.352;2024-03-08T02:55:20;95552.97;;;2.50;80.09
86048;BME280;76643;42.822;23.352;2024-03-08T02:57:46;95553.13;;;2.36;80.32
86048;BME280;76643;42.822;23.352;2024-03-08T03:00:14;95563.41;;;2.49;81.12
86048;BME280;76643;42.822;23.352;2024-03-08T03:02:41;95559.28;;;2.54;81.24
86048;BME280;76643;42.822;23.352;2024-03-08T03:05:08;95557.47;;;2.42;82.34
86048;BME280;76643;42.822;23.352;2024-03-08T03:07:35;95555.53;;;2.57;82.37
86048;BME280;76643;42.822;23.352;2024-03-08T03:10:01;95555.94;;;2.54;84.02
86048;BME280;76643;42.822;23.352;2024-03-08T03:12:31;95557.69;;;2.53;82.12
86048;BME280;76643;42.822;23.352;2024-03-08T03:14:57;95554.22;;;2.67;82.14
86048;BME280;76643;42.822;23.352;2024-03-08T03:17:24;95559.38;;;2.80;82.23
86048;BME280;76643;42.822;23.352;2024-03-08T03:19:50;95565.47;;;2.92;80.61
86048;BME280;76643;42.822;23.352;2024-03-08T03:22:17;95565.88;;;2.96;79.30
86048;BME280;76643;42.822;23.352;2024-03-08T03:24:43;95561.91;;;2.80;79.72
86048;BME280;76643;42.822;23.352;2024-03-08T03:27:09;95565.00;;;2.63;82.32
86048;BME280;76643;42.822;23.352;2024-03-08T03:29:38;95572.22;;;2.46;81.11
86048;BME280;76643;42.822;23.352;2024-03-08T03:32:05;95570.63;;;2.39;82.19
86048;BME280;76643;42.822;23.352;2024-03-08T03:34:30;95568.56;;;2.21;83.56
86048;BME280;76643;42.822;23.352;2024-03-08T03:36:56;95577.38;;;2.12;81.99
86048;BME280;76643;42.822;23.352;2024-03-08T03:39:22;95577.38;;;2.12;83.31
86048;BME280;76643;42.822;23.352;2024-03-08T03:41:48;95579.09;;;2.05;83.43
86048;BME280;76643;42.822;23.352;2024-03-08T03:44:17;95580.59;;;1.93;83.40
86048;BME280;76643;42.822;23.352;2024-03-08T03:46:42;95580.97;;;1.90;84.91
86048;BME280;76643;42.822;23.352;2024-03-08T03:49:10;95588.25;;;1.93;84.83
86048;BME280;76643;42.822;23.352;2024-03-08T03:51:36;95580.38;;;1.88;84.27
86048;BME280;76643;42.822;23.352;2024-03-08T03:54:01;95591.19;;;1.90;84.71
86048;BME280;76643;42.822;23.352;2024-03-08T03:56:29;95593.75;;;1.90;84.83
86048;BME280;76643;42.822;23.352;2024-03-08T03:58:56;95593.34;;;1.86;85.46
86048;BME280;76643;42.822;23.352;2024-03-08T04:01:21;95598.44;;;1.86;83.93
86048;BME280;76643;42.822;23.352;2024-03-08T04:03:47;95606.50;;;1.90;83.94
86048;BME280;76643;42.822;23.352;2024-03-08T04:06:13;95605.91;;;1.88;85.51
86048;BME280;76643;42.822;23.352;2024-03-08T04:08:39;95610.63;;;1.91;85.35
86048;BME280;76643;42.822;23.352;2024-03-08T04:11:05;95613.56;;;1.88;85.37
86048;BME280;76643;42.822;23.352;2024-03-08T04:13:30;95621.03;;;1.89;84.76
86048;BME280;76643;42.822;23.352;2024-03-08T04:15:56;95612.78;;;1.87;84.83
86048;BME280;76643;42.822;23.352;2024-03-08T04:18:21;95626.94;;;1.90;85.40
86048;BME280;76643;42.822;23.352;2024-03-08T04:20:47;95631.63;;;1.86;85.21
86048;BME280;76643;42.822;23.352;2024-03-08T04:23:12;95629.28;;;1.85;85.47
86048;BME280;76643;42.822;23.352;2024-03-08T04:25:38;95628.28;;;1.86;84.32
86048;BME280;76643;42.822;23.352;2024-03-08T04:28:04;95643.50;;;1.73;84.66
86048;BME280;76643;42.822;23.352;2024-03-08T04:30:29;95636.06;;;1.78;85.55
86048;BME280;76643;42.822;23.352;2024-03-08T04:32:55;95646.66;;;1.75;86.02
86048;BME280;76643;42.822;23.352;2024-03-08T04:35:21;95632.69;;;1.71;84.96
86048;BME280;76643;42.822;23.352;2024-03-08T04:37:46;95649.75;;;1.70;85.41
86048;BME280;76643;42.822;23.352;2024-03-08T04:40:11;95645.03;;;1.67;85.57
86048;BME280;76643;42.822;23.352;2024-03-08T04:42:39;95648.56;;;1.66;85.82
86048;BME280;76643;42.822;23.352;2024-03-08T04:45:06;95639.94;;;1.67;85.54
86048;BME280;76643;42.822;23.352;2024-03-08T04:47:33;95640.13;;;1.66;85.72
86048;BME280;76643;42.822;23.352;2024-03-08T04:49:58;95641.53;;;1.68;86.09
86048;BME280;76643;42.822;23.352;2024-03-08T04:52:24;95649.34;;;1.67;86.36
86048;BME280;76643;42.822;23.352;2024-03-08T04:54:51;95648.13;;;1.63;86.22
86048;BME280;76643;42.822;23.352;2024-03-08T04:57:17;95643.81;;;1.63;86.21
86048;BME280;76643;42.822;23.352;2024-03-08T04:59:43;95655.25;;;1.67;86.16
86048;BME280;76643;42.822;23.352;2024-03-08T05:02:09;95653.91;;;1.71;86.49
86048;BME280;76643;42.822;23.352;2024-03-08T05:04:34;95654.50;;;1.73;86.20
86048;BME280;76643;42.822;23.352;2024-03-08T05:07:00;95653.16;;;1.77;85.30
86048;BME280;76643;42.822;23.352;2024-03-08T05:09:26;95650.81;;;1.76;84.97
86048;BME280;76643;42.822;23.352;2024-03-08T05:11:54;95654.75;;;1.78;85.20
86048;BME280;76643;42.822;23.352;2024-03-08T05:14:19;95663.00;;;1.80;85.53
86048;BME280;76643;42.822;23.352;2024-03-08T05:16:46;95661.84;;;1.83;84.92
86048;BME280;76643;42.822;23.352;2024-03-08T05:19:14;95662.50;;;1.91;83.98
86048;BME280;76643;42.822;23.352;2024-03-08T05:21:42;95671.13;;;1.90;84.08
86048;BME280;76643;42.822;23.352;2024-03-08T05:24:08;95672.66;;;1.85;85.05
86048;BME280;76643;42.822;23.352;2024-03-08T05:26:35;95673.69;;;1.90;84.81
86048;BME280;76643;42.822;23.352;2024-03-08T05:29:00;95676.44;;;1.89;84.76
86048;BME280;76643;42.822;23.352;2024-03-08T05:31:26;95680.38;;;1.91;83.94
86048;BME280;76643;42.822;23.352;2024-03-08T05:33:53;95683.75;;;1.98;83.98
86048;BME280;76643;42.822;23.352;2024-03-08T05:36:20;95683.81;;;2.05;84.15
86048;BME280;76643;42.822;23.352;2024-03-08T05:38:45;95685.63;;;2.11;84.25
86048;BME280;76643;42.822;23.352;2024-03-08T05:41:11;95691.34;;;2.13;84.80
86048;BME280;76643;42.822;23.352;2024-03-08T05:43:40;95690.22;;;2.22;84.21
86048;BME280;76643;42.822;23.352;2024-03-08T05:46:06;95691.66;;;2.31;83.60
86048;BME280;76643;42.822;23.352;2024-03-08T05:48:31;95691.66;;;2.31;85.30
86048;BME280;76643;42.822;23.352;2024-03-08T05:51:00;95697.16;;;2.35;83.80
86048;BME280;76643;42.822;23.352;2024-03-08T05:53:25;95696.63;;;2.39;82.69
86048;BME280;76643;42.822;23.352;2024-03-08T05:55:52;95703.09;;;2.42;83.39
86048;BME280;76643;42.822;23.352;2024-03-08T05:58:17;95699.91;;;2.33;83.17
86048;BME280;76643;42.822;23.352;2024-03-08T06:00:43;95694.06;;;2.39;83.49
86048;BME280;76643;42.822;23.352;2024-03-08T06:03:08;95710.81;;;2.48;82.90
86048;BME280;76643;42.822;23.352;2024-03-08T06:05:34;95709.88;;;2.56;81.81
86048;BME280;76643;42.822;23.352;2024-03-08T06:08:00;95713.00;;;2.51;83.02
86048;BME280;76643;42.822;23.352;2024-03-08T06:10:25;95714.41;;;2.54;83.89
86048;BME280;76643;42.822;23.352;2024-03-08T06:12:51;95708.16;;;2.63;83.07
86048;BME280;76643;42.822;23.352;2024-03-08T06:15:16;95712.28;;;2.64;83.20
86048;BME280;76643;42.822;23.352;2024-03-08T06:17:42;95714.41;;;2.60;83.64
86048;BME280;76643;42.822;23.352;2024-03-08T06:20:08;95719.19;;;2.70;81.84
86048;BME280;76643;42.822;23.352;2024-03-08T06:22:38;95724.09;;;2.71;83.09
86048;BME280;76643;42.822;23.352;2024-03-08T06:25:10;95726.50;;;2.73;81.67
86048;BME280;76643;42.822;23.352;2024-03-08T06:27:41;95729.06;;;2.79;80.08
86048;BME280;76643;42.822;23.352;2024-03-08T06:30:08;95730.06;;;2.78;81.78
86048;BME280;76643;42.822;23.352;2024-03-08T06:32:38;95729.28;;;2.84;80.73
86048;BME280;76643;42.822;23.352;2024-03-08T06:35:04;95738.94;;;2.82;79.03
86048;BME280;76643;42.822;23.352;2024-03-08T06:37:33;95741.13;;;2.85;83.06
86048;BME280;76643;42.822;23.352;2024-03-08T06:39:59;95734.66;;;2.89;80.19
86048;BME280;76643;42.822;23.352;2024-03-08T06:42:26;95740.75;;;2.95;80.25
86048;BME280;76643;42.822;23.352;2024-03-08T06:44:52;95733.91;;;3.02;80.18
86048;BME280;76643;42.822;23.352;2024-03-08T06:47:20;95740.84;;;3.15;81.33
86048;BME280;76643;42.822;23.352;2024-03-08T06:49:46;95735.00;;;3.27;79.69
86048;BME280;76643;42.822;23.352;2024-03-08T06:52:12;95739.31;;;3.33;78.86
86048;BME280;76643;42.822;23.352;2024-03-08T06:54:37;95735.63;;;3.42;79.16
86048;BME280;76643;42.822;23.352;2024-03-08T06:57:04;95742.53;;;3.48;78.00
86048;BME280;76643;42.822;23.352;2024-03-08T06:59:30;95745.69;;;3.44;77.90
86048;BME280;76643;42.822;23.352;2024-03-08T07:01:56;95746.06;;;3.47;76.63
86048;BME280;76643;42.822;23.352;2024-03-08T07:04:21;95760.44;;;3.48;78.64
86048;BME280;76643;42.822;23.352;2024-03-08T07:06:51;95762.88;;;3.63;77.48
86048;BME280;76643;42.822;23.352;2024-03-08T07:09:17;95758.91;;;3.60;81.02
86048;BME280;76643;42.822;23.352;2024-03-08T07:11:43;95766.19;;;3.63;79.30
86048;BME280;76643;42.822;23.352;2024-03-08T07:14:08;95764.66;;;3.75;76.47
86048;BME280;76643;42.822;23.352;2024-03-08T07:16:34;95764.84;;;3.80;77.09
86048;BME280;76643;42.822;23.352;2024-03-08T07:19:03;95758.94;;;3.80;76.80
86048;BME280;76643;42.822;23.352;2024-03-08T07:21:30;95760.50;;;3.74;78.69
86048;BME280;76643;42.822;23.352;2024-03-08T07:23:55;95758.94;;;3.73;77.35
86048;BME280;76643;42.822;23.352;2024-03-08T07:26:27;95758.53;;;3.76;74.98
86048;BME280;76643;42.822;23.352;2024-03-08T07:28:53;95765.44;;;3.76;76.90
86048;BME280;76643;42.822;23.352;2024-03-08T07:31:21;95763.25;;;3.73;75.83
86048;BME280;76643;42.822;23.352;2024-03-08T07:33:56;95769.19;;;3.80;79.85
86048;BME280;76643;42.822;23.352;2024-03-08T07:36:24;95766.66;;;3.86;77.75
86048;BME280;76643;42.822;23.352;2024-03-08T07:38:49;95770.59;;;3.89;77.79
86048;BME280;76643;42.822;23.352;2024-03-08T07:41:15;95774.31;;;3.93;76.88
86048;BME280;76643;42.822;23.352;2024-03-08T07:43:41;95767.03;;;3.90;77.72
86048;BME280;76643;42.822;23.352;2024-03-08T07:46:07;95769.03;;;4.01;76.40
86048;BME280;76643;42.822;23.352;2024-03-08T07:48:35;95766.47;;;4.01;78.05
86048;BME280;76643;42.822;23.352;2024-03-08T07:51:02;95771.59;;;4.14;74.91
86048;BME280;76643;42.822;23.352;2024-03-08T07:53:28;95771.81;;;4.06;78.55
86048;BME280;76643;42.822;23.352;2024-03-08T07:55:54;95764.69;;;4.15;77.74
86048;BME280;76643;42.822;23.352;2024-03-08T07:58:19;95762.72;;;4.17;78.39
86048;BME280;76643;42.822;23.352;2024-03-08T08:00:45;95763.53;;;4.24;75.52
86048;BME280;76643;42.822;23.352;2024-03-08T08:03:10;95760.75;;;4.32;76.96
86048;BME280;76643;42.822;23.352;2024-03-08T08:05:36;95766.09;;;4.30;74.84
86048;BME280;76643;42.822;23.352;2024-03-08T08:08:04;95766.47;;;4.47;75.33
86048;BME280;76643;42.822;23.352;2024-03-08T08:10:32;95767.84;;;4.49;76.61
86048;BME280;76643;42.822;23.352;2024-03-08T08:12:58;95765.47;;;4.48;76.90
86048;BME280;76643;42.822;23.352;2024-03-08T08:15:23;95766.66;;;4.71;76.87
86048;BME280;76643;42.822;23.352;2024-03-08T08:17:49;95757.25;;;5.10;76.86
86048;BME280;76643;42.822;23.352;2024-03-08T08:20:14;95759.41;;;5.19;73.01
86048;BME280;76643;42.822;23.352;2024-03-08T08:22:40;95757.38;;;5.41;74.00
86048;BME280;76643;42.822;23.352;2024-03-08T08:25:07;95769.50;;;5.65;74.17
86048;BME280;76643;42.822;23.352;2024-03-08T08:27:33;95755.78;;;5.77;74.03
86048;BME280;76643;42.822;23.352;2024-03-08T08:29:58;95758.88;;;5.93;71.43
86048;BME280;76643;42.822;23.352;2024-03-08T08:32:24;95761.50;;;5.79;70.19
86048;BME280;76643;42.822;23.352;2024-03-08T08:34:50;95763.91;;;5.74;70.52
86048;BME280;76643;42.822;23.352;2024-03-08T08:37:15;95763.47;;;5.84;68.15
86048;BME280;76643;42.822;23.352;2024-03-08T08:39:42;95759.13;;;5.78;71.80
86048;BME280;76643;42.822;23.352;2024-03-08T08:42:07;95759.13;;;5.78;69.44
86048;BME280;76643;42.822;23.352;2024-03-08T08:44:35;95761.41;;;5.61;71.40
86048;BME280;76643;42.822;23.352;2024-03-08T08:47:00;95763.56;;;5.58;71.24
86048;BME280;76643;42.822;23.352;2024-03-08T08:49:26;95752.53;;;5.57;69.32
86048;BME280;76643;42.822;23.352;2024-03-08T08:51:52;95760.81;;;5.59;66.50
86048;BME280;76643;42.822;23.352;2024-03-08T08:54:17;95757.47;;;5.52;69.37
86048;BME280;76643;42.822;23.352;2024-03-08T08:56:43;95761.22;;;5.56;70.48
86048;BME280;76643;42.822;23.352;2024-03-08T08:59:09;95757.69;;;5.57;68.24
86048;BME280;76643;42.822;23.352;2024-03-08T09:01:35;95758.19;;;5.72;69.37
86048;BME280;76643;42.822;23.352;2024-03-08T09:04:00;95748.88;;;5.78;68.51
86048;BME280;76643;42.822;23.352;2024-03-08T09:06:26;95756.31;;;5.93;68.93
86048;BME280;76643;42.822;23.352;2024-03-08T09:08:51;95753.19;;;6.15;67.31
86048;BME280;76643;42.822;23.352;2024-03-08T09:11:18;95756.06;;;6.25;66.52
86048;BME280;76643;42.822;23.352;2024-03-08T09:13:46;95747.56;;;6.49;64.63
86048;BME280;76643;42.822;23.352;2024-03-08T09:16:12;95746.19;;;6.71;63.60
86048;BME280;76643;42.822;23.352;2024-03-08T09:18:37;95741.16;;;6.58;64.70
86048;BME280;76643;42.822;23.352;2024-03-08T09:21:03;95744.09;;;6.80;63.83
86048;BME280;76643;42.822;23.352;2024-03-08T09:23:30;95730.59;;;7.03;71.23
86048;BME280;76643;42.822;23.352;2024-03-08T09:25:58;95737.63;;;7.43;62.65
86048;BME280;76643;42.822;23.352;2024-03-08T09:28:24;95728.06;;;7.80;66.01
86048;BME280;76643;42.822;23.352;2024-03-08T09:30:50;95732.00;;;7.94;66.04
86048;BME280;76643;42.822;23.352;2024-03-08T09:33:16;95743.00;;;7.90;58.39
86048;BME280;76643;42.822;23.352;2024-03-08T09:35:45;95732.88;;;8.41;65.14
86048;BME280;76643;42.822;23.352;2024-03-08T09:38:12;95736.50;;;8.40;57.59
86048;BME280;76643;42.822;23.352;2024-03-08T09:40:40;95739.63;;;8.53;57.66
86048;BME280;76643;42.822;23.352;2024-03-08T09:43:06;95737.50;;;8.62;60.02
86048;BME280;76643;42.822;23.352;2024-03-08T09:45:35;95737.41;;;8.57;61.69
86048;BME280;76643;42.822;23.352;2024-03-08T09:48:01;95740.53;;;8.47;57.82
86048;BME280;76643;42.822;23.352;2024-03-08T09:50:27;95742.00;;;8.55;59.35
86048;BME280;76643;42.822;23.352;2024-03-08T09:52:55;95735.25;;;8.77;59.31
86048;BME280;76643;42.822;23.352;2024-03-08T09:55:22;95735.91;;;8.84;60.83
86048;BME280;76643;42.822;23.352;2024-03-08T09:57:48;95738.00;;;9.22;60.61
86048;BME280;76643;42.822;23.352;2024-03-08T10:00:33;95742.19;;;9.00;55.44
86048;BME280;76643;42.822;23.352;2024-03-08T10:03:02;95743.09;;;8.94;54.47
86048;BME280;76643;42.822;23.352;2024-03-08T10:05:30;95728.16;;;9.07;59.64
86048;BME280;76643;42.822;23.352;2024-03-08T10:07:55;95732.19;;;9.03;60.85
86048;BME280;76643;42.822;23.352;2024-03-08T10:10:20;95727.38;;;8.95;54.63
86048;BME280;76643;42.822;23.352;2024-03-08T10:12:48;95729.19;;;9.34;60.20
86048;BME280;76643;42.822;23.352;2024-03-08T10:15:15;95728.28;;;9.40;54.11
86048;BME280;76643;42.822;23.352;2024-03-08T10:17:42;95734.63;;;9.61;59.41
86048;BME280;76643;42.822;23.352;2024-03-08T10:20:17;95735.41;;;9.61;57.26
86048;BME280;76643;42.822;23.352;2024-03-08T10:22:44;95731.66;;;9.69;53.18
86048;BME280;76643;42.822;23.352;2024-03-08T10:25:10;95735.88;;;9.19;54.44
86048;BME280;76643;42.822;23.352;2024-03-08T10:27:38;95731.22;;;8.93;55.22
86048;BME280;76643;42.822;23.352;2024-03-08T10:30:06;95734.03;;;8.56;57.89
86048;BME280;76643;42.822;23.352;2024-03-08T10:32:35;95728.28;;;8.43;56.07
86048;BME280;76643;42.822;23.352;2024-03-08T10:35:01;95725.03;;;8.24;57.22
86048;BME280;76643;42.822;23.352;2024-03-08T10:37:50;95721.00;;;8.28;58.25
86048;BME280;76643;42.822;23.352;2024-03-08T10:40:24;95712.81;;;8.43;58.66
86048;BME280;76643;42.822;23.352;2024-03-08T10:42:53;95706.63;;;8.79;59.55
86048;BME280;76643;42.822;23.352;2024-03-08T10:47:57;95705.16;;;8.94;58.41
86048;BME280;76643;42.822;23.352;2024-03-08T10:50:29;95712.34;;;8.69;59.65
86048;BME280;76643;42.822;23.352;2024-03-08T10:53:00;95707.09;;;8.52;58.45
86048;BME280;76643;42.822;23.352;2024-03-08T10:55:28;95707.31;;;8.28;58.48
86048;BME280;76643;42.822;23.352;2024-03-08T10:57:53;95704.88;;;8.03;57.60
86048;BME280;76643;42.822;23.352;2024-03-08T11:00:20;95704.97;;;8.38;62.68
86048;BME280;76643;42.822;23.352;2024-03-08T11:02:52;95693.84;;;8.60;56.74
86048;BME280;76643;42.822;23.352;2024-03-08T11:05:38;95697.56;;;8.53;57.40
86048;BME280;76643;42.822;23.352;2024-03-08T11:08:24;95699.78;;;8.26;59.57
86048;BME280;76643;42.822;23.352;2024-03-08T11:10:51;95698.50;;;8.06;57.07
86048;BME280;76643;42.822;23.352;2024-03-08T11:13:36;95695.50;;;8.20;57.19
86048;BME280;76643;42.822;23.352;2024-03-08T11:16:09;95694.81;;;8.02;57.65
86048;BME280;76643;42.822;23.352;2024-03-08T11:18:35;95692.56;;;7.64;59.60
86048;BME280;76643;42.822;23.352;2024-03-08T11:21:03;95688.19;;;8.06;57.02
86048;BME280;76643;42.822;23.352;2024-03-08T11:23:33;95690.91;;;8.92;59.94
86048;BME280;76643;42.822;23.352;2024-03-08T11:25:59;95684.19;;;8.67;56.63
86048;BME280;76643;42.822;23.352;2024-03-08T11:28:25;95678.47;;;8.42;56.90
86048;BME280;76643;42.822;23.352;2024-03-08T11:33:40;95675.47;;;8.45;55.16
86048;BME280;76643;42.822;23.352;2024-03-08T11:36:27;95675.09;;;8.53;56.90
86048;BME280;76643;42.822;23.352;2024-03-08T11:38:52;95670.94;;;8.87;56.91
86048;BME280;76643;42.822;23.352;2024-03-08T11:41:20;95668.38;;;8.41;56.50
86048;BME280;76643;42.822;23.352;2024-03-08T11:43:47;95670.06;;;8.70;56.81
86048;BME280;76643;42.822;23.352;2024-03-08T11:46:16;95666.44;;;8.83;58.04
86048;BME280;76643;42.822;23.352;2024-03-08T11:48:44;95669.47;;;9.19;57.09
86048;BME280;76643;42.822;23.352;2024-03-08T11:51:14;95661.19;;;9.62;53.17
86048;BME280;76643;42.822;23.352;2024-03-08T11:53:40;95663.78;;;9.62;51.11
86048;BME280;76643;42.822;23.352;2024-03-08T11:56:14;95660.72;;;10.26;56.96
86048;BME280;76643;42.822;23.352;2024-03-08T11:58:40;95660.59;;;10.54;50.61
86048;BME280;76643;42.822;23.352;2024-03-08T12:01:06;95662.13;;;10.01;54.57
86048;BME280;76643;42.822;23.352;2024-03-08T12:03:32;95660.72;;;9.93;51.70
86048;BME280;76643;42.822;23.352;2024-03-08T12:06:02;95663.03;;;9.33;54.16
86048;BME280;76643;42.822;23.352;2024-03-08T12:08:30;95665.03;;;9.43;52.05
86048;BME280;76643;42.822;23.352;2024-03-08T12:10:56;95664.16;;;8.98;53.32
86048;BME280;76643;42.822;23.352;2024-03-08T12:13:29;95664.84;;;8.82;53.06
86048;BME280;76643;42.822;23.352;2024-03-08T12:15:59;95660.13;;;8.90;53.16
86048;BME280;76643;42.822;23.352;2024-03-08T12:18:26;95664.31;;;8.80;54.30
86048;BME280;76643;42.822;23.352;2024-03-08T12:21:10;95671.09;;;9.09;52.28
86048;BME280;76643;42.822;23.352;2024-03-08T12:23:37;95661.59;;;8.98;52.94
86048;BME280;76643;42.822;23.352;2024-03-08T12:26:18;95660.94;;;8.91;54.36
86048;BME280;76643;42.822;23.352;2024-03-08T12:28:48;95667.69;;;8.68;54.29
86048;BME280;76643;42.822;23.352;2024-03-08T12:31:16;95650.66;;;8.56;53.07
86048;BME280;76643;42.822;23.352;2024-03-08T12:33:53;95661.03;;;8.84;53.81
86048;BME280;76643;42.822;23.352;2024-03-08T12:36:19;95655.38;;;9.10;53.13
86048;BME280;76643;42.822;23.352;2024-03-08T12:38:46;95650.78;;;9.01;53.11
86048;BME280;76643;42.822;23.352;2024-03-08T12:41:14;95641.50;;;9.28;53.83
86048;BME280;76643;42.822;23.352;2024-03-08T12:43:40;95632.25;;;9.60;52.97
86048;BME280;76643;42.822;23.352;2024-03-08T12:46:05;95641.44;;;9.84;55.91
86048;BME280;76643;42.822;23.352;2024-03-08T12:48:34;95637.53;;;10.15;54.64
86048;BME280;76643;42.822;23.352;2024-03-08T12:51:01;95632.50;;;9.75;50.51
86048;BME280;76643;42.822;23.352;2024-03-08T12:53:26;95637.66;;;9.75;52.81
86048;BME280;76643;42.822;23.352;2024-03-08T12:55:54;95635.34;;;9.62;51.11
86048;BME280;76643;42.822;23.352;2024-03-08T12:58:21;95642.53;;;9.15;54.28
86048;BME280;76643;42.822;23.352;2024-03-08T13:00:47;95638.78;;;8.95;53.59
86048;BME280;76643;42.822;23.352;2024-03-08T13:03:14;95647.78;;;9.32;52.10
86048;BME280;76643;42.822;23.352;2024-03-08T13:05:39;95637.81;;;9.68;53.49